Station info - map view · info · telemetry · weather · raw · status · beacons · messages · bulletins · browse · moving · my account
Callsign, ship name or locator: Clear       
It is possible to search using wildcards (*?) after a prefix. Example: OH*
APRS station KH6VM-7 - show graphs
Map loading...
Mic-E message: In service
Location: 48°03.20' N 122°06.82' W - locator CN88WB62IT - show map - static map
2.9 miles East bearing 88° from Marysville, Snohomish County, Washington, United States [?]
3.5 miles Northwest bearing 319° from Lake Stevens, Snohomish County, Washington, United States
32.5 miles North bearing 18° from Seattle, King County, Washington, United States
79.6 miles Southeast bearing 156° from Surrey, British Columbia, Canada
Last position: 2019-06-25 15:36:23 EDT (1d 4h18m ago)
2019-06-25 12:36:23 PDT local time at Marysville, United States [?]
Altitude: 407 ft
Course:
Device: Yaesu: FTM-400DR (rig)
Last path: KH6VM-7>T8PSRP via WIDE1-1,WIDE2-1,qAO,K7NVH-1 (good)
Positions stored: 627
Packet rate: 355 seconds between packets on average during 3193 seconds.
Other SSIDs: KH6VM KH6VM-9
Stations near current position of KH6VM-7 - show more
callsign distance last heard - EDT      callsign distance last heard - EDT
KD7IYT B1.1 miles 282°2019-06-25 23:51:51 KD7IYT-B1.1 miles 282°2019-06-25 23:52:01
KB7SOL-72.1 miles 161°2019-06-15 10:44:19 RA-92.7 miles 156°2019-05-28 18:22:28
N7KGB-92.9 miles 277°2019-06-23 02:34:46 N7KGB-72.9 miles 270°2019-06-16 04:24:26
N7KGB2.9 miles 270°2019-06-26 19:50:33 KD7IYT-93.0 miles 277°2019-06-15 14:30:06
CW91073.0 miles 125°2019-06-26 19:45:56 KD7TTY B3.1 miles 127°2019-06-25 05:32:01
KD7TTY-B3.1 miles 127°2019-06-25 05:32:11 PS-KD7TTY3.1 miles 127°2019-06-25 06:01:05
KD7TTY-53.1 miles 127°2019-06-26 19:54:04 KI5BMD-103.3 miles 245°2019-06-23 10:18:49
kd7ttl3.4 miles 47°2019-06-26 19:51:47 DW78233.5 miles 324°2019-06-26 19:53:21
KG7MEL3.5 miles 352°2019-06-26 19:49:10 KI7UVX-93.6 miles 140°2019-06-03 17:10:16
N7OBI-93.7 miles 180°2019-06-26 19:06:14 N7TAU-23.7 miles 230°2019-06-02 16:53:22
Stations which heard KH6VM-7 directly on radio –
callsign pkts first heard - EDT last heard longest (tx => rx) longest at - EDT
LARCH 1 2019-06-01 12:46:45 2019-06-01 12:46:45 CN85PT > CN85UR 19.4 miles 107° 2019-06-01 12:46:45
BALDI 3 2019-06-01 10:25:21 2019-06-25 15:23:45 CN88XA > CN97BF 56.2 miles 169° 2019-06-25 15:23:45
WW7RA 1 2019-06-01 09:50:10 2019-06-01 09:50:10 CN87UT > CN87ON 32.1 miles 232° 2019-06-01 09:50:10
W7PFR-1 1 2019-06-01 10:10:23 2019-06-01 10:10:23 CN87UN > CN86UU 48.7 miles 177° 2019-06-01 10:10:23
K7NVH-1 7 2019-06-25 15:10:42 2019-06-25 15:36:23 CN88WB > CN87VX 7.3 miles 219° 2019-06-25 15:36:23
KF7DJC-10 3 2019-06-01 11:41:11 2019-06-01 11:51:11 CN86NN > CN86MP 9.3 miles 332° 2019-06-01 11:51:11
N7SET 1 2019-06-01 09:55:13 2019-06-01 09:55:13 CN87US > CN87US 0.8 miles 97° 2019-06-01 09:55:13
W7HR-1 1 2019-06-25 15:05:42 2019-06-25 15:05:42 CN87VX > CN87RN 35.0 miles 208° 2019-06-25 15:05:42
WA7VC-10 1 2019-06-01 10:20:21 2019-06-01 10:20:21 CN87UJ > CN97DL 29.0 miles 80° 2019-06-01 10:20:21
W7NPC-10 1 2019-06-01 10:05:21 2019-06-01 10:05:21 CN87UO > CN87RP 10.5 miles 284° 2019-06-01 10:05:21
BALDPK 1 2019-06-01 12:56:43 2019-06-01 12:56:43 CN85PT > CN85LJ 32.5 miles 213° 2019-06-01 12:56:43
JUPITR 2 2019-06-01 10:00:18 2019-06-01 11:18:22 CN86MU > CN87MQ 56.9 miles 0° 2019-06-01 11:18:22
W7DG-5 5 2019-06-01 11:56:10 2019-06-01 12:21:44 CN86NK > CN86ME 19.3 miles 190° 2019-06-01 11:56:10
NPLNS 1 2019-06-01 13:30:49 2019-06-01 13:30:49 CN85OM > CN85MP 14.6 miles 308° 2019-06-01 13:30:49
W7LT 1 2019-06-01 13:19:58 2019-06-01 13:19:58 CN85PM > CN85RK 8.6 miles 135° 2019-06-01 13:19:58
KB7CZ-15 1 2019-06-01 12:26:45 2019-06-01 12:26:45 CN86NB > CN86MB 3.1 miles 234° 2019-06-01 12:26:45

Only position packets which were originated by the station are shown here. The range statistics show some extra long hops, because some digipeaters do not correctly add themselves to the digipeater path. Please check the raw packets.
About this site
This page shows real-time information collected from the Automatic Position Reporting System Internet network (APRS-IS). APRS is used by amateur (ham) radio operators to transmit real-time position information, weather data, telemetry and messages over the radio. A vehicle equipped with a GPS receiver, a VHF transmitter or HF transceiver and a small computer device called a tracker transmits it's location, speed and course in a small data packet, which is then received by a nearby iGate receiving site which forwards the packet on the Internet. Systems connected to the Internet can send information on the APRS-IS without a radio transmitter, or collect and display information transmitted anywhere in the world.
FAQ · Blog · Discussion group · Linking to aprs.fi · AIS sites · Service status · Database statistics · Advertising on aprs.fi · Technical details · API · Change log · Planned changes · Credits and thanks · Terms Of Service · iPhone/iPad APRS